createdAt,value
2023-11-18T00:04:31.563Z,101906.63
2023-11-18T00:09:32.940Z,101911.56
2023-11-18T00:14:34.313Z,101923.41
2023-11-18T00:19:37.673Z,101914.91
2023-11-18T00:24:39.104Z,101933.44
2023-11-18T00:29:40.459Z,101933.31
2023-11-18T00:34:42.015Z,101934.78
2023-11-18T00:39:45.169Z,101931.75
2023-11-18T00:44:46.534Z,101922.25
2023-11-18T00:49:48.234Z,101909.00
2023-11-18T00:54:49.657Z,101907.00
2023-11-18T00:59:51.096Z,101909.22
2023-11-18T01:04:52.540Z,101899.69
2023-11-18T01:09:53.918Z,101893.00
2023-11-18T01:14:55.280Z,101884.75
2023-11-18T01:19:56.721Z,101893.25
2023-11-18T01:24:59.472Z,101905.81
2023-11-18T01:30:01.228Z,101902.66
2023-11-18T01:35:02.862Z,101921.66
2023-11-18T01:40:08.401Z,101920.59
2023-11-18T01:45:12.701Z,101907.22
2023-11-18T01:50:15.474Z,101918.50
2023-11-18T01:55:18.136Z,101911.31
2023-11-18T02:00:19.842Z,101921.66
2023-11-18T02:05:22.766Z,101923.03
2023-11-18T02:10:26.393Z,101910.81
2023-11-18T02:15:28.768Z,101915.06
2023-11-18T02:20:31.265Z,101924.47
2023-11-18T02:25:35.338Z,101905.53
2023-11-18T02:30:36.730Z,101904.94
2023-11-18T02:35:42.064Z,101906.13
2023-11-18T02:40:45.544Z,101904.59
2023-11-18T02:50:49.177Z,101902.59
2023-11-18T02:55:53.084Z,101906.22
2023-11-18T03:00:54.802Z,101894.84
2023-11-18T03:05:56.169Z,101900.59
2023-11-18T03:11:00.791Z,101899.88
2023-11-18T03:16:02.341Z,101901.19
2023-11-18T03:21:03.740Z,101899.53
2023-11-18T03:26:06.707Z,101901.44
2023-11-18T03:31:08.499Z,101900.28
2023-11-18T03:36:10.191Z,101903.31
2023-11-18T03:41:12.304Z,101884.19
2023-11-18T03:46:13.775Z,101883.34
2023-11-18T03:51:18.022Z,101874.06
2023-11-18T03:56:19.707Z,101864.19
2023-11-18T04:01:24.980Z,101850.66
2023-11-18T04:06:26.419Z,101857.97
2023-11-18T04:11:27.811Z,101875.72
2023-11-18T04:16:29.208Z,101889.69
2023-11-18T04:21:30.597Z,101890.88
2023-11-18T04:26:32.555Z,101905.44
2023-11-18T04:31:35.393Z,101893.47
2023-11-18T04:36:36.829Z,101893.47
2023-11-18T04:41:38.380Z,101879.94
2023-11-18T04:46:39.785Z,101880.16
2023-11-18T04:51:41.163Z,101867.22
2023-11-18T04:56:42.668Z,101867.09
2023-11-18T05:01:44.160Z,101874.75
2023-11-18T05:06:45.958Z,101855.81
2023-11-18T05:11:47.448Z,101841.94
2023-11-18T05:16:49.153Z,101837.94
2023-11-18T05:21:51.432Z,101827.59
2023-11-18T05:26:53.629Z,101821.16
2023-11-18T05:31:55.871Z,101817.06
2023-11-18T05:36:58.483Z,101818.91
2023-11-18T05:41:59.899Z,101824.28
2023-11-18T05:47:02.871Z,101812.31
2023-11-18T05:52:04.668Z,101816.19
2023-11-18T05:57:06.016Z,101806.25
2023-11-18T06:02:09.233Z,101795.81
2023-11-18T06:07:10.753Z,101774.72
2023-11-18T06:12:12.215Z,101781.84
2023-11-18T06:17:14.397Z,101773.59
2023-11-18T06:22:16.289Z,101795.44
2023-11-18T06:27:18.680Z,101800.59
2023-11-18T06:32:20.577Z,101779.09
2023-11-18T06:37:22.181Z,101767.69
2023-11-18T06:42:24.707Z,101772.47
2023-11-18T06:47:26.218Z,101761.47
2023-11-18T06:52:27.838Z,101767.34
2023-11-18T06:57:29.219Z,101758.75
2023-11-18T07:02:30.689Z,101759.31
2023-11-18T07:07:32.150Z,101798.56
2023-11-18T07:12:35.070Z,101784.31
2023-11-18T07:17:36.601Z,101788.16
2023-11-18T07:22:38.037Z,101795.78
2023-11-18T07:27:40.178Z,101783.97
2023-11-18T07:32:41.707Z,101799.25
2023-11-18T07:37:43.155Z,101812.66
2023-11-18T07:42:44.601Z,101803.94
2023-11-18T07:47:47.562Z,101804.31
2023-11-18T07:52:51.673Z,101803.66
2023-11-18T07:57:53.285Z,101795.38
2023-11-18T08:02:55.641Z,101781.34
2023-11-18T08:07:57.194Z,101757.50
2023-11-18T08:12:58.549Z,101770.34
2023-11-18T08:18:00.318Z,101761.50
2023-11-18T08:23:01.795Z,101753.44
2023-11-18T08:28:04.849Z,101767.41
2023-11-18T08:33:09.826Z,101769.03
2023-11-18T08:38:13.556Z,101761.41
2023-11-18T08:43:17.484Z,101781.72
2023-11-18T08:48:19.597Z,101779.03
2023-11-18T08:53:27.304Z,101780.38
2023-11-18T08:58:30.222Z,101783.13
2023-11-18T09:03:38.095Z,101793.50
2023-11-18T09:08:40.139Z,101775.88
2023-11-18T09:13:43.750Z,101764.56
2023-11-18T09:18:48.225Z,101773.69
2023-11-18T09:23:49.794Z,101785.06
2023-11-18T09:28:51.468Z,101784.06
2023-11-18T09:33:53.827Z,101772.34
2023-11-18T09:38:55.611Z,101761.03
2023-11-18T09:43:59.939Z,101769.38
2023-11-18T09:49:10.082Z,101766.50
2023-11-18T09:54:22.608Z,101764.75
2023-11-18T09:59:29.593Z,101764.88
2023-11-18T10:04:32.554Z,101754.75
2023-11-18T10:09:44.205Z,101753.25
2023-11-18T10:14:45.563Z,101733.06
2023-11-18T10:19:53.689Z,101745.63
2023-11-18T10:24:58.442Z,101728.28
2023-11-18T10:30:03.779Z,101723.50
2023-11-18T10:35:10.798Z,101712.69
2023-11-18T10:40:14.789Z,101706.44
2023-11-18T10:45:24.521Z,101701.78
2023-11-18T10:50:33.021Z,101682.66
2023-11-18T10:55:38.286Z,101678.69
2023-11-18T11:00:49.768Z,101669.13
2023-11-18T11:05:51.476Z,101650.41
2023-11-18T11:10:55.483Z,101630.84
2023-11-18T11:15:59.129Z,101630.16
2023-11-18T11:21:06.252Z,101611.44
2023-11-18T11:26:14.746Z,101606.09
2023-11-18T11:31:25.377Z,101602.00
2023-11-18T11:36:32.535Z,101596.53
2023-11-18T11:41:35.548Z,101591.44
2023-11-18T11:46:38.469Z,101581.16
2023-11-18T11:51:51.767Z,101581.44
2023-11-18T11:57:02.546Z,101577.72
2023-11-18T12:02:08.875Z,101555.84
2023-11-18T12:07:18.566Z,101561.56
2023-11-18T12:12:22.633Z,101556.22
2023-11-18T12:17:29.836Z,101536.50
2023-11-18T12:22:51.942Z,101526.19
2023-11-18T12:27:59.993Z,101519.16
2023-11-18T12:33:12.036Z,101485.72
2023-11-18T12:38:35.498Z,101462.19
2023-11-18T12:44:08.212Z,101461.16
2023-11-18T12:49:16.258Z,101452.78
2023-11-18T12:54:20.584Z,101432.47
2023-11-18T12:59:24.683Z,101415.28
2023-11-18T13:04:28.317Z,101408.50
2023-11-18T13:09:33.244Z,101400.53
2023-11-18T13:14:37.538Z,101401.16
2023-11-18T13:19:39.928Z,101420.78
2023-11-18T13:24:42.102Z,101413.31
2023-11-18T13:29:49.960Z,101405.19
2023-11-18T13:34:52.651Z,101376.09
2023-11-18T13:39:57.692Z,101358.03
2023-11-18T13:45:10.468Z,101344.41
2023-11-18T13:50:12.126Z,101355.59
2023-11-18T13:55:18.232Z,101336.59
2023-11-18T14:00:24.286Z,101314.50
2023-11-18T14:05:25.884Z,101299.34
2023-11-18T14:10:27.362Z,101309.13
2023-11-18T14:15:28.777Z,101296.75
2023-11-18T14:20:32.187Z,101297.72
2023-11-18T14:25:34.968Z,101273.88
2023-11-18T14:30:36.950Z,101251.97
2023-11-18T14:35:38.917Z,101242.22
2023-11-18T14:40:42.666Z,101233.59
2023-11-18T14:45:44.487Z,101234.06
2023-11-18T14:50:46.230Z,101226.59
2023-11-18T14:55:47.615Z,101213.91
2023-11-18T15:00:48.989Z,101200.59
2023-11-18T15:05:50.901Z,101173.94
2023-11-18T15:10:52.314Z,101162.91
2023-11-18T15:15:53.772Z,101170.38
2023-11-18T15:20:57.655Z,101159.47
2023-11-18T15:25:59.238Z,101147.78
2023-11-18T15:31:02.305Z,101142.88
2023-11-18T15:36:04.731Z,101134.97
2023-11-18T15:41:06.248Z,101111.09
2023-11-18T15:46:11.990Z,101087.22
2023-11-18T15:51:17.021Z,101075.19
2023-11-18T15:56:20.206Z,101057.50
2023-11-18T16:01:21.652Z,101040.47
2023-11-18T16:06:23.067Z,101059.59
2023-11-18T16:11:24.530Z,101038.81
2023-11-18T16:16:28.322Z,101039.47
2023-11-18T16:21:29.771Z,101030.06
2023-11-18T16:26:31.190Z,101008.97
2023-11-18T16:31:32.631Z,101012.03
2023-11-18T16:36:34.060Z,101009.13
2023-11-18T16:41:43.307Z,100998.72
2023-11-18T16:46:47.482Z,100999.06
2023-11-18T16:51:53.937Z,100999.88
2023-11-18T16:56:57.343Z,100989.16
2023-11-18T17:01:58.763Z,100968.88
2023-11-18T17:07:00.203Z,100965.63
2023-11-18T17:12:01.598Z,100954.56
2023-11-18T17:17:02.994Z,100955.06
2023-11-18T17:22:06.041Z,100952.63
2023-11-18T17:27:08.111Z,100963.50
2023-11-18T17:32:09.782Z,100956.69
2023-11-18T17:37:12.930Z,100953.44
2023-11-18T17:42:14.360Z,100934.91
2023-11-18T17:47:16.876Z,100936.84
2023-11-18T17:52:18.275Z,100924.19
2023-11-18T17:57:19.661Z,100906.47
2023-11-18T18:02:21.090Z,100912.34
2023-11-18T18:07:22.479Z,100918.34
2023-11-18T18:12:23.902Z,100907.44
2023-11-18T18:17:25.506Z,100913.28
2023-11-18T18:22:28.351Z,100916.03
2023-11-18T18:27:29.732Z,100916.03
2023-11-18T18:32:31.652Z,100916.38
2023-11-18T18:37:33.226Z,100923.03
2023-11-18T18:42:34.576Z,100906.59
2023-11-18T18:47:36.313Z,100892.50
2023-11-18T18:52:37.936Z,100888.91
2023-11-18T18:57:39.292Z,100885.50
2023-11-18T19:02:41.386Z,100855.94
2023-11-18T19:07:42.840Z,100856.25
2023-11-18T19:12:44.220Z,100872.00
2023-11-18T19:17:45.968Z,100860.09
2023-11-18T19:22:47.358Z,100864.63
2023-11-18T19:27:48.795Z,100859.88
2023-11-18T19:32:50.364Z,100856.16
2023-11-18T19:37:51.848Z,100859.69
2023-11-18T19:42:53.213Z,100859.00
2023-11-18T19:47:54.669Z,100853.13
2023-11-18T19:52:56.473Z,100857.00
2023-11-18T19:57:58.382Z,100847.72
2023-11-18T20:02:59.967Z,100853.72
2023-11-18T20:08:01.463Z,100841.19
2023-11-18T20:13:02.934Z,100825.72
2023-11-18T20:18:06.657Z,100818.22
2023-11-18T20:23:10.257Z,100823.09
2023-11-18T20:28:11.691Z,100816.38
2023-11-18T20:33:13.113Z,100810.53
2023-11-18T20:38:14.570Z,100802.72
2023-11-18T20:43:17.399Z,100795.03
2023-11-18T20:48:18.825Z,100779.09
2023-11-18T20:53:20.427Z,100784.75
2023-11-18T20:58:22.490Z,100770.03
2023-11-18T21:03:24.142Z,100782.72
2023-11-18T21:08:25.692Z,100777.16
2023-11-18T21:13:28.114Z,100752.53
2023-11-18T21:18:29.504Z,100741.50
2023-11-18T21:23:33.916Z,100762.91
2023-11-18T21:28:36.993Z,100748.97
2023-11-18T21:33:38.735Z,100718.63
2023-11-18T21:38:40.223Z,100724.28
2023-11-18T21:43:42.138Z,100725.75
2023-11-18T21:48:43.503Z,100706.50
2023-11-18T21:53:45.083Z,100702.19
2023-11-18T21:58:46.538Z,100681.00
2023-11-18T22:03:48.021Z,100695.91
2023-11-18T22:08:49.905Z,100693.31
2023-11-18T22:13:52.841Z,100695.22
2023-11-18T22:18:54.200Z,100674.53
2023-11-18T22:23:55.565Z,100674.81
2023-11-18T22:28:57.411Z,100664.13
2023-11-18T22:33:59.326Z,100664.13
2023-11-18T22:39:00.685Z,100669.69
2023-11-18T22:44:02.030Z,100656.81
2023-11-18T22:49:03.891Z,100668.41
2023-11-18T22:54:05.371Z,100677.13
2023-11-18T22:59:08.138Z,100693.06
2023-11-18T23:04:12.996Z,100677.50
2023-11-18T23:09:14.772Z,100672.16
2023-11-18T23:14:16.316Z,100671.50
2023-11-18T23:19:17.726Z,100649.19
2023-11-18T23:24:19.081Z,100643.41
2023-11-18T23:29:20.452Z,100640.25
2023-11-18T23:34:21.916Z,100627.38
2023-11-18T23:39:29.683Z,100610.38
2023-11-18T23:44:32.410Z,100624.97
2023-11-18T23:49:33.862Z,100635.16
2023-11-18T23:54:36.703Z,100615.72
2023-11-18T23:59:38.057Z,100616.53
